Time;durP1;ratioP1;P1;durP2;ratioP2;P2;SDS_P1;SDS_P2;PMS_P1;PMS_P2;Temp;Humidity;BMP_temperature;BMP_pressure;BME280_temperature;BME280_humidity;BME280_pressure;Samples;Min_cycle;Max_cycle;Signal;HPM_P1;HPM_P2
2021/09/08 00:00:32;;;;;;;13.10;10.60;;;14.70;99.90;;;;;;5052132;28;20031;-70
2021/09/08 00:02:59;;;;;;;16.15;11.75;;;14.70;99.90;;;;;;5052429;28;20126;-70
2021/09/08 00:05:25;;;;;;;14.05;10.80;;;14.70;99.90;;;;;;5051756;28;20424;-70
2021/09/08 00:07:51;;;;;;;14.30;11.10;;;14.60;99.90;;;;;;5051854;28;20060;-70
2021/09/08 00:10:17;;;;;;;12.48;10.40;;;14.60;99.90;;;;;;5050711;28;20028;-70
2021/09/08 00:12:43;;;;;;;14.63;10.52;;;14.50;99.90;;;;;;5051117;28;20471;-69
2021/09/08 00:15:10;;;;;;;13.88;11.13;;;14.50;99.90;;;;;;5052314;28;20032;-68
2021/09/08 00:17:36;;;;;;;14.63;10.77;;;14.50;99.90;;;;;;5050619;28;20150;-68
2021/09/08 00:20:02;;;;;;;12.95;10.30;;;14.40;99.90;;;;;;5051597;28;20037;-69
2021/09/08 00:22:28;;;;;;;12.23;10.85;;;14.40;99.90;;;;;;5050573;28;20044;-68
2021/09/08 00:24:54;;;;;;;15.63;11.80;;;14.40;99.90;;;;;;5050588;28;20112;-68
2021/09/08 00:27:19;;;;;;;12.57;11.02;;;14.30;99.90;;;;;;5051442;28;20068;-68
2021/09/08 00:29:45;;;;;;;12.13;10.27;;;14.30;99.90;;;;;;5051095;28;20025;-68
2021/09/08 00:32:11;;;;;;;14.65;11.38;;;14.30;99.90;;;;;;5051702;28;20079;-68
2021/09/08 00:34:37;;;;;;;13.18;11.18;;;14.30;99.90;;;;;;5050140;28;20025;-68
2021/09/08 00:37:02;;;;;;;13.18;10.98;;;14.20;99.90;;;;;;5051188;28;20097;-69
2021/09/08 00:39:28;;;;;;;13.63;11.82;;;14.20;99.90;;;;;;5051092;28;20041;-68
2021/09/08 00:41:54;;;;;;;14.82;11.45;;;14.20;99.90;;;;;;5051620;28;20052;-69
2021/09/08 00:44:19;;;;;;;14.88;10.80;;;14.20;99.90;;;;;;5051387;28;20071;-69
2021/09/08 00:46:45;;;;;;;14.40;11.57;;;14.20;99.90;;;;;;5050661;28;20029;-68
2021/09/08 00:49:12;;;;;;;14.20;11.30;;;14.20;99.90;;;;;;5047789;28;20055;-68
2021/09/08 00:51:38;;;;;;;14.15;10.85;;;14.10;99.90;;;;;;5030882;28;20025;-68
2021/09/08 00:54:10;;;;;;;14.85;11.55;;;14.00;99.90;;;;;;5064504;28;20485;-68
2021/09/08 00:56:36;;;;;;;13.82;11.02;;;14.00;99.90;;;;;;5050343;28;20474;-68
2021/09/08 00:59:03;;;;;;;12.18;10.75;;;14.00;99.90;;;;;;5051552;28;20111;-68
2021/09/08 01:01:29;;;;;;;12.82;11.38;;;13.90;99.90;;;;;;5052036;28;20489;-68
2021/09/08 01:03:54;;;;;;;13.85;10.75;;;14.00;99.90;;;;;;5051455;28;20025;-68
2021/09/08 01:06:20;;;;;;;13.98;11.27;;;14.00;99.90;;;;;;5051313;28;20112;-68
2021/09/08 01:08:46;;;;;;;14.75;12.20;;;13.90;99.90;;;;;;5050438;28;20040;-69
2021/09/08 01:11:12;;;;;;;15.48;12.68;;;13.90;99.90;;;;;;5051203;28;20451;-69
2021/09/08 01:13:38;;;;;;;14.15;11.77;;;13.90;99.90;;;;;;5050321;28;20029;-69
2021/09/08 01:16:05;;;;;;;15.75;11.55;;;13.80;99.90;;;;;;5051105;28;20029;-68
2021/09/08 01:18:32;;;;;;;13.32;11.68;;;13.80;99.90;;;;;;5041091;28;20051;-68
2021/09/08 01:20:58;;;;;;;14.73;10.70;;;13.80;99.90;;;;;;5049708;28;20032;-68
2021/09/08 01:23:24;;;;;;;12.95;10.95;;;13.80;99.90;;;;;;5050160;28;20462;-68
2021/09/08 01:25:50;;;;;;;13.45;11.13;;;13.70;99.90;;;;;;5048763;28;20032;-68
2021/09/08 01:28:16;;;;;;;14.52;11.93;;;13.70;99.90;;;;;;5049770;28;20033;-68
2021/09/08 01:30:42;;;;;;;17.17;13.23;;;13.70;99.90;;;;;;5048594;28;20086;-68
2021/09/08 01:33:09;;;;;;;16.02;12.38;;;13.70;99.90;;;;;;5049226;28;20445;-68
2021/09/08 01:35:34;;;;;;;15.63;12.60;;;13.60;99.90;;;;;;5048441;28;20116;-68
2021/09/08 01:38:00;;;;;;;14.82;11.75;;;13.60;99.90;;;;;;5051216;28;20472;-68
2021/09/08 01:40:26;;;;;;;13.43;11.45;;;13.60;99.90;;;;;;5053577;28;20043;-69
2021/09/08 01:42:52;;;;;;;15.95;12.10;;;13.60;99.90;;;;;;5052985;28;20132;-68
2021/09/08 01:45:17;;;;;;;13.43;11.52;;;13.60;99.90;;;;;;5053593;28;20351;-69
2021/09/08 01:47:44;;;;;;;13.88;11.63;;;13.60;99.90;;;;;;5052438;28;20474;-69
2021/09/08 01:50:10;;;;;;;13.60;11.88;;;13.50;99.90;;;;;;5053245;28;20075;-68
2021/09/08 01:52:40;;;;;;;13.55;11.05;;;13.50;99.90;;;;;;5051954;28;20048;-68
2021/09/08 01:55:11;;;;;;;16.27;12.50;;;13.50;99.90;;;;;;5054047;28;20064;-68
2021/09/08 01:57:37;;;;;;;15.45;11.88;;;13.40;99.90;;;;;;5052467;28;20040;-69
2021/09/08 02:00:05;;;;;;;14.02;11.57;;;13.40;99.90;;;;;;5053405;28;20362;-69
2021/09/08 02:02:31;;;;;;;13.65;11.38;;;13.30;99.90;;;;;;5052720;28;20462;-68
2021/09/08 02:04:57;;;;;;;14.25;11.38;;;13.30;99.90;;;;;;5053000;28;20055;-68
2021/09/08 02:07:22;;;;;;;13.23;11.30;;;13.30;99.90;;;;;;5052992;28;20055;-68
2021/09/08 02:09:48;;;;;;;14.88;11.30;;;13.20;99.90;;;;;;5050703;28;20683;-68
2021/09/08 02:12:14;;;;;;;12.38;10.95;;;13.20;99.90;;;;;;5052213;28;20866;-68
2021/09/08 02:14:39;;;;;;;13.70;11.48;;;13.20;99.90;;;;;;5051718;28;20098;-68
2021/09/08 02:17:05;;;;;;;13.07;11.32;;;13.20;99.90;;;;;;5052260;28;20430;-69
2021/09/08 02:19:31;;;;;;;15.80;11.73;;;13.10;99.90;;;;;;5051720;28;20083;-68
2021/09/08 02:21:56;;;;;;;18.08;14.07;;;13.10;99.90;;;;;;5052622;28;20085;-68
2021/09/08 02:24:22;;;;;;;15.88;12.85;;;13.10;99.90;;;;;;5052189;28;20481;-69
2021/09/08 02:26:48;;;;;;;19.60;13.80;;;13.10;99.90;;;;;;5051806;28;20025;-68
2021/09/08 02:29:13;;;;;;;18.48;14.60;;;13.10;99.90;;;;;;5051489;28;20174;-69
2021/09/08 02:31:39;;;;;;;17.98;13.20;;;13.10;99.90;;;;;;5049193;28;20514;-68
2021/09/08 02:34:05;;;;;;;15.13;12.02;;;13.10;99.90;;;;;;5052475;28;20401;-69
2021/09/08 02:36:31;;;;;;;15.98;13.65;;;13.10;99.90;;;;;;5051764;28;20028;-68
2021/09/08 02:38:56;;;;;;;15.73;12.27;;;13.00;99.90;;;;;;5052396;28;20126;-68
2021/09/08 02:41:23;;;;;;;17.02;13.15;;;13.00;99.90;;;;;;5051841;28;20053;-68
2021/09/08 02:43:50;;;;;;;14.45;12.48;;;12.90;99.90;;;;;;5051792;28;20029;-68
2021/09/08 02:46:16;;;;;;;16.20;12.18;;;12.80;99.90;;;;;;5052754;28;20060;-68
2021/09/08 02:48:42;;;;;;;16.13;12.50;;;12.80;99.90;;;;;;5048718;28;20110;-68
2021/09/08 02:51:08;;;;;;;15.98;12.75;;;12.80;99.90;;;;;;5050659;28;20024;-69
2021/09/08 02:53:33;;;;;;;15.85;12.50;;;12.70;99.90;;;;;;5050839;28;20123;-68
2021/09/08 02:56:00;;;;;;;15.45;12.65;;;12.70;99.90;;;;;;5050830;28;20032;-69
2021/09/08 02:58:27;;;;;;;15.20;12.57;;;12.70;99.90;;;;;;5051667;28;20103;-69
2021/09/08 03:00:53;;;;;;;14.65;12.93;;;12.60;99.90;;;;;;5051112;28;20057;-69
2021/09/08 03:03:18;;;;;;;17.35;13.48;;;12.60;99.90;;;;;;5051531;28;20079;-69
2021/09/08 03:05:45;;;;;;;14.45;11.80;;;12.60;99.90;;;;;;5051168;28;20138;-69
2021/09/08 03:08:11;;;;;;;14.60;12.95;;;12.50;99.90;;;;;;5052138;28;20017;-69
2021/09/08 03:10:37;;;;;;;14.95;12.75;;;12.50;99.90;;;;;;5051030;28;20035;-68
2021/09/08 03:13:03;;;;;;;15.63;12.32;;;12.50;99.90;;;;;;5051759;28;20051;-68
2021/09/08 03:15:29;;;;;;;16.02;12.27;;;12.50;99.90;;;;;;5049900;28;20474;-68
2021/09/08 03:17:55;;;;;;;15.07;13.32;;;12.50;99.90;;;;;;5051510;28;20032;-68
2021/09/08 03:20:20;;;;;;;18.50;14.05;;;12.50;99.90;;;;;;5051154;28;20033;-68
2021/09/08 03:22:46;;;;;;;15.40;13.23;;;12.50;99.90;;;;;;5050302;28;20033;-68
2021/09/08 03:25:12;;;;;;;16.92;13.82;;;12.50;99.90;;;;;;5050274;28;20033;-69
2021/09/08 03:27:40;;;;;;;16.02;13.75;;;12.40;99.90;;;;;;5050760;28;20078;-68
2021/09/08 03:30:07;;;;;;;17.40;14.00;;;12.40;99.90;;;;;;5051337;28;20090;-69
2021/09/08 03:32:33;;;;;;;17.67;14.35;;;12.40;99.90;;;;;;5050768;28;20036;-69
2021/09/08 03:34:59;;;;;;;18.30;13.80;;;12.40;99.90;;;;;;5050690;28;20031;-68
2021/09/08 03:37:24;;;;;;;15.77;13.20;;;12.40;99.90;;;;;;5050998;28;20043;-68
2021/09/08 03:39:51;;;;;;;15.55;13.07;;;12.40;99.90;;;;;;5049996;28;20118;-68
2021/09/08 03:42:18;;;;;;;18.63;13.60;;;12.30;99.90;;;;;;5050363;28;20057;-68
2021/09/08 03:44:43;;;;;;;17.85;14.15;;;12.30;99.90;;;;;;5050020;28;20032;-68
2021/09/08 03:47:09;;;;;;;23.13;14.38;;;12.30;99.90;;;;;;5051569;28;20490;-69
2021/09/08 03:49:35;;;;;;;18.10;13.77;;;12.30;99.90;;;;;;5050393;28;20025;-68
2021/09/08 03:52:00;;;;;;;18.08;13.65;;;12.20;99.90;;;;;;5050642;28;20041;-68
2021/09/08 03:54:26;;;;;;;17.17;13.30;;;12.20;99.90;;;;;;5048546;28;20029;-68
2021/09/08 03:56:51;;;;;;;17.45;13.27;;;12.20;99.90;;;;;;5048805;28;20036;-68
2021/09/08 03:59:17;;;;;;;19.05;15.35;;;12.20;99.90;;;;;;5050538;28;20048;-69
2021/09/08 04:01:43;;;;;;;17.23;13.57;;;12.20;99.90;;;;;;5049128;28;20522;-69
2021/09/08 04:04:09;;;;;;;17.30;14.05;;;12.20;99.90;;;;;;5050727;28;20029;-68
2021/09/08 04:06:35;;;;;;;17.65;14.73;;;12.20;99.90;;;;;;5049899;28;20024;-68
2021/09/08 04:09:00;;;;;;;17.13;14.00;;;12.20;99.90;;;;;;5050392;28;20378;-69
2021/09/08 04:11:26;;;;;;;18.52;14.32;;;12.20;99.90;;;;;;5050947;28;20155;-69
2021/09/08 04:13:51;;;;;;;20.00;14.52;;;12.10;99.90;;;;;;5049877;28;20803;-69
2021/09/08 04:16:17;;;;;;;20.27;15.43;;;12.10;99.90;;;;;;5050339;28;20197;-69
2021/09/08 04:18:43;;;;;;;20.27;16.17;;;12.10;99.90;;;;;;5048339;28;20105;-69
2021/09/08 04:21:08;;;;;;;20.42;15.60;;;12.10;99.90;;;;;;5050678;28;20028;-70
2021/09/08 04:23:34;;;;;;;21.73;16.30;;;12.10;99.90;;;;;;5050269;28;20033;-70
2021/09/08 04:25:59;;;;;;;23.50;16.73;;;12.00;99.90;;;;;;5050386;28;20067;-69
2021/09/08 04:28:25;;;;;;;22.60;16.48;;;12.10;99.90;;;;;;5049572;28;20554;-69
2021/09/08 04:30:50;;;;;;;21.42;15.45;;;12.10;99.90;;;;;;5048310;28;20025;-70
2021/09/08 04:33:16;;;;;;;21.38;16.27;;;12.10;99.90;;;;;;5049862;28;20375;-72
2021/09/08 04:35:42;;;;;;;23.83;17.83;;;12.00;99.90;;;;;;5049145;28;20060;-70
2021/09/08 04:38:08;;;;;;;20.33;17.08;;;12.00;99.90;;;;;;5048706;28;20395;-69
2021/09/08 04:40:33;;;;;;;19.45;15.63;;;12.00;99.90;;;;;;5049095;28;20051;-69
2021/09/08 04:43:01;;;;;;;21.90;17.35;;;12.00;99.90;;;;;;5050411;28;20075;-70
2021/09/08 04:45:27;;;;;;;22.45;16.52;;;12.00;99.90;;;;;;5048924;28;20335;-69
2021/09/08 04:47:53;;;;;;;19.63;16.35;;;12.00;99.90;;;;;;5050972;28;20035;-69
2021/09/08 04:50:18;;;;;;;18.73;14.15;;;12.00;99.90;;;;;;5051072;28;20029;-69
2021/09/08 04:52:44;;;;;;;18.55;14.82;;;12.00;99.90;;;;;;5051012;28;20029;-69
2021/09/08 04:55:11;;;;;;;18.30;15.02;;;11.90;99.90;;;;;;5051282;28;20021;-69
2021/09/08 04:57:36;;;;;;;20.38;16.05;;;11.90;99.90;;;;;;5050386;28;20135;-69
2021/09/08 05:00:04;;;;;;;19.75;16.02;;;11.90;99.90;;;;;;5041778;28;20029;-69
2021/09/08 05:02:29;;;;;;;22.70;15.88;;;11.90;99.90;;;;;;5048809;28;20489;-69
2021/09/08 05:04:55;;;;;;;19.42;15.63;;;11.90;99.90;;;;;;5050977;28;20056;-69
2021/09/08 05:07:20;;;;;;;19.23;15.85;;;11.90;99.90;;;;;;5050872;28;20025;-69
2021/09/08 05:09:46;;;;;;;23.90;16.75;;;11.90;99.90;;;;;;5050395;28;20040;-69
2021/09/08 05:12:12;;;;;;;20.45;16.38;;;11.90;99.90;;;;;;5053140;28;20086;-69
2021/09/08 05:14:38;;;;;;;23.02;17.33;;;11.90;99.90;;;;;;5054153;28;20033;-69
2021/09/08 05:17:05;;;;;;;20.45;16.00;;;12.00;99.90;;;;;;5055044;28;20028;-69
2021/09/08 05:19:32;;;;;;;18.85;15.48;;;12.00;99.90;;;;;;5054524;28;20033;-69
2021/09/08 05:21:58;;;;;;;20.45;15.90;;;12.00;99.90;;;;;;5053967;28;20033;-70
2021/09/08 05:24:23;;;;;;;19.83;15.68;;;12.10;99.90;;;;;;5054507;28;20103;-70
2021/09/08 05:26:49;;;;;;;19.85;15.40;;;12.10;99.90;;;;;;5053872;28;20108;-69
2021/09/08 05:29:16;;;;;;;20.30;16.02;;;12.20;99.90;;;;;;5054729;28;20040;-69
2021/09/08 05:31:42;;;;;;;19.90;15.48;;;12.30;99.90;;;;;;5053128;28;20028;-69
2021/09/08 05:34:07;;;;;;;17.65;14.80;;;12.30;99.90;;;;;;5054892;28;20088;-69
2021/09/08 05:36:33;;;;;;;20.38;14.98;;;12.40;99.90;;;;;;5054213;28;20238;-69
2021/09/08 05:38:59;;;;;;;18.00;15.23;;;12.40;99.90;;;;;;5054571;28;20044;-69
2021/09/08 05:41:24;;;;;;;19.08;14.30;;;12.50;99.90;;;;;;5053177;28;20073;-69
2021/09/08 05:43:50;;;;;;;18.90;15.00;;;12.50;99.90;;;;;;5053925;28;20466;-68
2021/09/08 05:46:16;;;;;;;23.30;15.35;;;12.60;99.90;;;;;;5053755;28;20029;-69
2021/09/08 05:48:41;;;;;;;18.83;14.63;;;12.60;99.90;;;;;;5053738;28;20063;-69
2021/09/08 05:51:08;;;;;;;17.58;14.35;;;12.70;99.90;;;;;;5054629;28;20159;-69
2021/09/08 05:53:34;;;;;;;21.33;15.25;;;12.70;99.90;;;;;;5053851;28;20425;-73
2021/09/08 05:55:59;;;;;;;17.60;13.48;;;12.80;99.90;;;;;;5054051;28;20021;-75
2021/09/08 05:58:25;;;;;;;17.30;14.18;;;12.90;99.90;;;;;;5054386;28;20029;-70
2021/09/08 06:00:51;;;;;;;16.10;13.52;;;13.00;99.90;;;;;;5053415;28;20690;-69
2021/09/08 06:03:17;;;;;;;18.73;13.38;;;13.10;99.90;;;;;;5053713;28;20025;-69
2021/09/08 06:05:42;;;;;;;19.17;13.02;;;13.20;99.90;;;;;;5053466;28;20057;-70
2021/09/08 06:08:08;;;;;;;16.05;12.95;;;13.30;99.90;;;;;;5053823;28;20029;-69
2021/09/08 06:10:34;;;;;;;18.65;14.52;;;13.40;99.90;;;;;;5053454;28;20056;-71
2021/09/08 06:12:59;;;;;;;19.17;14.75;;;13.50;99.90;;;;;;5053977;28;20039;-71
2021/09/08 06:15:25;;;;;;;18.40;14.48;;;13.60;99.90;;;;;;5053183;28;20037;-71
2021/09/08 06:17:51;;;;;;;18.63;14.27;;;13.70;99.90;;;;;;5053505;28;20623;-69
2021/09/08 06:20:16;;;;;;;15.60;13.10;;;13.90;99.90;;;;;;5053463;28;20409;-69
2021/09/08 06:22:42;;;;;;;16.65;13.43;;;13.90;99.90;;;;;;5052880;28;20053;-69
2021/09/08 06:25:09;;;;;;;18.70;15.07;;;14.00;99.90;;;;;;5053440;28;20030;-69
2021/09/08 06:27:35;;;;;;;23.02;15.48;;;14.20;99.90;;;;;;5052123;28;20040;-69
2021/09/08 06:30:01;;;;;;;18.52;14.68;;;14.30;99.90;;;;;;5053137;28;20033;-70
2021/09/08 06:32:27;;;;;;;16.20;13.20;;;14.30;99.90;;;;;;5052574;28;20501;-69
2021/09/08 06:34:53;;;;;;;15.43;12.68;;;14.50;99.90;;;;;;5052397;28;20035;-69
2021/09/08 06:37:19;;;;;;;26.77;16.35;;;14.60;99.90;;;;;;5052564;28;20091;-69
2021/09/08 06:39:44;;;;;;;21.10;14.88;;;14.70;99.90;;;;;;5052417;28;20032;-69
2021/09/08 06:42:10;;;;;;;20.58;16.75;;;14.80;99.90;;;;;;5053827;28;20049;-71
2021/09/08 06:44:36;;;;;;;24.20;16.30;;;14.90;99.90;;;;;;5053637;28;20037;-70
2021/09/08 06:47:02;;;;;;;18.52;14.52;;;15.00;99.90;;;;;;5052990;28;20104;-70
2021/09/08 06:49:27;;;;;;;22.95;16.65;;;15.10;99.90;;;;;;5041595;28;20021;-70
2021/09/08 06:51:53;;;;;;;26.98;18.60;;;15.20;99.90;;;;;;5044427;28;20099;-70
2021/09/08 06:54:19;;;;;;;26.50;18.45;;;15.30;99.90;;;;;;5051847;28;20382;-70
2021/09/08 06:56:44;;;;;;;29.48;19.02;;;15.50;99.90;;;;;;5052351;28;20042;-70
2021/09/08 06:59:10;;;;;;;22.58;17.33;;;15.60;99.90;;;;;;5051907;28;20029;-71
2021/09/08 07:01:36;;;;;;;24.48;18.98;;;15.80;99.90;;;;;;5051868;28;20021;-70
2021/09/08 07:04:01;;;;;;;25.85;18.90;;;15.90;99.90;;;;;;5054766;28;20021;-73
2021/09/08 07:06:27;;;;;;;37.80;20.23;;;16.00;99.90;;;;;;5048018;28;20025;-70
2021/09/08 07:08:53;;;;;;;25.92;19.13;;;16.10;99.90;;;;;;5053780;28;20473;-71
2021/09/08 07:11:20;;;;;;;30.90;21.55;;;16.20;99.90;;;;;;5048731;28;20029;-71
2021/09/08 07:13:46;;;;;;;28.35;20.05;;;16.40;99.90;;;;;;5050166;28;20060;-70
2021/09/08 07:16:13;;;;;;;28.75;19.75;;;16.50;99.90;;;;;;5052364;28;20062;-70
2021/09/08 07:18:38;;;;;;;27.25;19.38;;;16.60;99.90;;;;;;5052156;28;20047;-70
2021/09/08 07:21:04;;;;;;;29.67;19.67;;;16.70;99.90;;;;;;5052140;28;20146;-71
2021/09/08 07:23:31;;;;;;;21.35;16.15;;;16.80;99.90;;;;;;5051975;28;20533;-71
2021/09/08 07:25:57;;;;;;;26.13;17.38;;;16.90;99.90;;;;;;5052068;28;20024;-71
2021/09/08 07:28:22;;;;;;;24.15;16.25;;;17.00;99.90;;;;;;5052291;28;20025;-72
2021/09/08 07:30:53;;;;;;;26.02;16.25;;;17.10;99.90;;;;;;5044579;28;20032;-71
2021/09/08 07:33:25;;;;;;;;;;;17.20;99.90;;;;;;5052078;28;20532;-72
2021/09/08 07:35:51;;;;;;;23.63;16.30;;;17.30;99.90;;;;;;5052471;28;19908;-72
2021/09/08 07:38:18;;;;;;;23.80;17.27;;;17.50;99.90;;;;;;5072234;28;20055;-71
2021/09/08 07:40:44;;;;;;;21.15;15.82;;;17.60;99.90;;;;;;5072281;28;20028;-71
2021/09/08 07:43:11;;;;;;;21.13;15.77;;;17.80;99.90;;;;;;5054468;28;20508;-71
2021/09/08 07:45:37;;;;;;;23.80;16.77;;;17.90;99.90;;;;;;5051775;28;20091;-71
2021/09/08 07:48:03;;;;;;;24.15;14.85;;;18.10;99.90;;;;;;5051118;28;20024;-70
2021/09/08 07:50:29;;;;;;;21.60;16.40;;;18.10;99.90;;;;;;5052625;28;20040;-70
2021/09/08 07:52:55;;;;;;;23.40;15.85;;;18.20;99.90;;;;;;5051166;28;20021;-70
2021/09/08 07:55:20;;;;;;;20.67;13.88;;;18.40;99.90;;;;;;5051731;28;20032;-89
2021/09/08 07:57:46;;;;;;;15.95;13.02;;;18.50;99.90;;;;;;5050581;28;20036;-78
2021/09/08 08:00:13;;;;;;;21.75;13.85;;;18.60;99.90;;;;;;5051192;28;20032;-79
2021/09/08 08:02:46;;;;;;;17.23;13.85;;;18.80;99.90;;;;;;5050755;28;20033;-82
2021/09/08 08:05:14;;;;;;;21.85;13.80;;;18.90;99.90;;;;;;5051328;28;20441;-80
2021/09/08 08:07:40;;;;;;;19.70;14.02;;;19.00;99.90;;;;;;5051161;28;20036;-80
2021/09/08 08:10:06;;;;;;;20.17;13.88;;;19.10;99.90;;;;;;5050520;28;20031;-71
2021/09/08 08:12:32;;;;;;;17.70;12.63;;;19.10;99.90;;;;;;5051774;28;20028;-71
2021/09/08 08:14:58;;;;;;;16.15;11.98;;;19.20;99.80;;;;;;5050981;28;20062;-71
2021/09/08 08:17:23;;;;;;;17.15;12.38;;;19.40;99.50;;;;;;5051206;28;20065;-74
2021/09/08 08:19:49;;;;;;;22.27;13.10;;;19.50;99.00;;;;;;5050352;28;20032;-71
2021/09/08 08:22:16;;;;;;;49.35;14.60;;;19.70;98.10;;;;;;5051571;28;20028;-71
2021/09/08 08:24:41;;;;;;;21.50;12.13;;;19.80;97.80;;;;;;5051434;28;20024;-71
2021/09/08 08:27:07;;;;;;;17.60;11.43;;;19.90;96.80;;;;;;5050746;28;20173;-71
2021/09/08 08:29:33;;;;;;;16.45;11.57;;;20.00;96.20;;;;;;5051404;28;20033;-71
2021/09/08 08:31:59;;;;;;;16.73;11.02;;;20.10;95.70;;;;;;5050016;28;20029;-71
2021/09/08 08:34:25;;;;;;;17.48;11.85;;;20.10;95.30;;;;;;5051390;28;20113;-70
2021/09/08 08:36:51;;;;;;;16.08;11.55;;;20.30;94.60;;;;;;5050497;28;20112;-71
2021/09/08 08:39:17;;;;;;;18.27;11.45;;;20.40;94.20;;;;;;5050958;28;20037;-71
2021/09/08 08:41:43;;;;;;;17.63;11.05;;;20.50;93.90;;;;;;5051033;28;20052;-71
2021/09/08 08:44:09;;;;;;;19.58;11.32;;;20.60;93.80;;;;;;5049855;28;20471;-71
2021/09/08 08:46:36;;;;;;;14.82;10.35;;;20.70;93.20;;;;;;5051163;28;20516;-78
2021/09/08 08:49:03;;;;;;;16.10;10.15;;;20.80;93.10;;;;;;5050101;28;20021;-78
2021/09/08 08:51:29;;;;;;;19.35;11.73;;;21.00;92.70;;;;;;5051282;28;20051;-78
2021/09/08 08:53:55;;;;;;;14.85;10.55;;;21.10;91.30;;;;;;5049409;28;20021;-80
2021/09/08 08:56:21;;;;;;;14.20;10.73;;;21.20;90.90;;;;;;5050835;28;20527;-78
2021/09/08 08:58:47;;;;;;;13.13;9.55;;;21.20;90.40;;;;;;5050962;28;20397;-79
2021/09/08 09:01:22;;;;;;;13.85;9.85;;;21.30;90.10;;;;;;5050414;28;20021;-74
2021/09/08 09:04:03;;;;;;;18.33;10.10;;;21.40;89.60;;;;;;5049916;28;20402;-76
2021/09/08 09:06:29;;;;;;;11.85;9.85;;;21.50;85.10;;;;;;5050930;28;20072;-74
2021/09/08 09:09:20;;;;;;;17.20;10.25;;;21.70;84.40;;;;;;5049740;28;20048;-77
2021/09/08 09:11:48;;;;;;;14.40;10.23;;;21.80;83.10;;;;;;5050054;28;20033;-76
2021/09/08 09:14:16;;;;;;;14.25;9.25;;;21.90;81.30;;;;;;5030789;28;20459;-76
2021/09/08 09:16:44;;;;;;;13.65;9.88;;;22.00;80.50;;;;;;5035528;28;20036;-78
2021/09/08 09:19:12;;;;;;;19.27;9.55;;;22.10;79.80;;;;;;5049477;28;20489;-77
2021/09/08 09:21:38;;;;;;;22.75;9.80;;;22.20;79.30;;;;;;5050779;28;20033;-77
2021/09/08 09:24:06;;;;;;;15.70;9.70;;;22.40;79.80;;;;;;5049664;28;20036;-78
2021/09/08 09:26:35;;;;;;;14.73;9.45;;;22.50;79.20;;;;;;5050842;28;20029;-75
2021/09/08 09:29:16;;;;;;;16.38;9.85;;;22.60;77.00;;;;;;5049318;28;20110;-76
2021/09/08 09:32:01;;;;;;;14.73;8.93;;;22.80;76.30;;;;;;5043858;28;20096;-78
2021/09/08 09:34:29;;;;;;;14.32;9.23;;;22.90;75.80;;;;;;5050290;28;20028;-80
2021/09/08 09:37:00;;;;;;;14.07;9.10;;;22.90;75.70;;;;;;5049888;28;20521;-76
2021/09/08 09:39:32;;;;;;;13.27;8.18;;;23.10;74.20;;;;;;5050252;28;20487;-79
2021/09/08 09:42:11;;;;;;;12.82;8.20;;;23.20;73.80;;;;;;5049871;28;20045;-76
2021/09/08 09:44:38;;;;;;;10.32;7.15;;;23.40;73.60;;;;;;5050548;28;20121;-80
2021/09/08 09:47:04;;;;;;;15.82;7.72;;;23.50;71.20;;;;;;5049942;28;20107;-80
2021/09/08 09:49:32;;;;;;;13.98;7.60;;;23.60;71.30;;;;;;5050216;28;20474;-80
2021/09/08 09:51:58;;;;;;;10.20;7.85;;;23.70;70.70;;;;;;5049844;28;20043;-76
2021/09/08 09:54:25;;;;;;;11.45;7.88;;;24.00;68.60;;;;;;5050171;28;20129;-80
2021/09/08 09:56:55;;;;;;;14.65;7.70;;;24.10;68.30;;;;;;5050496;28;20052;-80
2021/09/08 09:59:21;;;;;;;9.82;7.25;;;24.10;67.00;;;;;;5051518;28;20162;-78
2021/09/08 10:01:47;;;;;;;15.07;7.90;;;24.20;67.10;;;;;;5052911;28;20068;-79
2021/09/08 10:04:13;;;;;;;11.75;7.38;;;24.20;66.60;;;;;;5046596;28;20486;-76
2021/09/08 10:06:40;;;;;;;10.93;7.90;;;24.20;67.00;;;;;;5054668;28;20517;-82
2021/09/08 10:09:10;;;;;;;17.52;7.45;;;24.40;67.30;;;;;;5053325;28;20079;-68
2021/09/08 10:11:44;;;;;;;16.02;8.15;;;24.40;66.50;;;;;;5054264;28;20033;-71
2021/09/08 10:14:21;;;;;;;11.63;7.40;;;24.50;66.50;;;;;;5052928;28;20033;-71
2021/09/08 10:16:48;;;;;;;12.13;7.55;;;24.50;66.40;;;;;;5053534;28;20045;-74
2021/09/08 10:19:25;;;;;;;9.25;7.20;;;24.60;65.80;;;;;;5052666;28;20103;-81
2021/09/08 10:21:53;;;;;;;11.82;7.75;;;24.70;66.00;;;;;;5052026;28;20116;-81
2021/09/08 10:24:24;;;;;;;10.63;7.65;;;24.80;66.00;;;;;;5052846;28;20675;-80
2021/09/08 10:26:50;;;;;;;10.38;8.23;;;24.90;66.00;;;;;;5049579;28;20036;-78
2021/09/08 10:29:15;;;;;;;9.43;7.55;;;25.00;64.80;;;;;;5033113;28;20033;-78
2021/09/08 10:31:48;;;;;;;13.93;8.00;;;24.90;64.90;;;;;;5049500;28;20025;-80
2021/09/08 10:34:14;;;;;;;8.60;7.13;;;25.10;65.10;;;;;;5053736;28;20044;-74
2021/09/08 10:36:42;;;;;;;10.38;7.90;;;25.10;64.20;;;;;;5053607;28;20063;-71
2021/09/08 10:39:10;;;;;;;8.25;7.07;;;25.20;63.30;;;;;;5055131;28;20093;-71
2021/09/08 10:41:47;;;;;;;9.25;7.53;;;25.20;63.70;;;;;;5052564;28;20045;-77
2021/09/08 10:44:15;;;;;;;7.93;7.05;;;25.20;63.80;;;;;;5052530;28;20040;-71
2021/09/08 10:46:59;;;;;;;10.15;7.32;;;25.20;64.60;;;;;;5046694;28;20226;-71
2021/09/08 10:49:37;;;;;;;11.40;8.15;;;25.30;65.30;;;;;;5052705;28;20040;-72
2021/09/08 10:52:15;;;;;;;7.95;7.15;;;25.50;63.40;;;;;;5049513;28;20021;-72
2021/09/08 10:54:59;;;;;;;8.68;7.32;;;25.60;63.70;;;;;;5051544;28;20025;-72
2021/09/08 10:57:46;;;;;;;10.45;7.07;;;25.80;63.40;;;;;;5051175;28;20037;-72
2021/09/08 11:00:32;;;;;;;9.10;7.45;;;26.00;62.30;;;;;;5049898;28;20028;-72
2021/09/08 11:02:58;;;;;;;9.15;7.60;;;26.20;62.20;;;;;;5050383;28;20029;-72
2021/09/08 11:05:23;;;;;;;11.02;7.28;;;26.40;60.60;;;;;;5052293;28;20120;-71
2021/09/08 11:07:51;;;;;;;8.10;6.80;;;26.40;60.20;;;;;;5051849;28;20124;-71
2021/09/08 11:10:34;;;;;;;9.68;7.68;;;26.40;60.60;;;;;;5051127;28;20036;-71
2021/09/08 11:13:01;;;;;;;8.07;6.75;;;26.50;61.30;;;;;;5050943;28;20107;-71
2021/09/08 11:15:31;;;;;;;8.32;7.00;;;26.70;60.50;;;;;;5051986;28;20508;-71
2021/09/08 11:17:57;;;;;;;7.00;6.32;;;26.80;60.10;;;;;;5060150;28;20045;-72
2021/09/08 11:20:23;;;;;;;14.88;7.07;;;26.90;59.40;;;;;;5051493;28;20028;-71
2021/09/08 11:23:10;;;;;;;7.65;6.85;;;26.90;59.00;;;;;;5052282;28;20039;-71
2021/09/08 11:25:44;;;;;;;6.65;5.82;;;27.00;58.30;;;;;;5052511;28;20455;-71
2021/09/08 11:28:12;;;;;;;9.43;6.50;;;27.20;58.50;;;;;;5051118;28;20029;-71
2021/09/08 11:30:42;;;;;;;8.05;6.18;;;;;;;;;;5052250;28;20036;-69
2021/09/08 11:33:08;;;;;;;;;;;27.90;56.50;;;;;;5051765;28;20383;-69
2021/09/08 11:35:53;;;;;;;12.18;7.07;;;27.90;57.30;;;;;;5052434;28;19905;-69
2021/09/08 11:38:22;;;;;;;12.52;7.25;;;28.00;57.10;;;;;;5051178;28;20210;-69
2021/09/08 11:40:50;;;;;;;19.08;7.05;;;28.10;57.30;;;;;;5051834;28;20025;-69
2021/09/08 11:43:48;;;;;;;6.97;6.28;;;28.40;56.50;;;;;;5051038;28;20068;-69
2021/09/08 11:46:21;;;;;;;10.70;7.03;;;28.70;55.00;;;;;;5048602;28;20021;-69
2021/09/08 11:49:14;;;;;;;10.50;6.00;;;28.80;54.30;;;;;;5046549;28;20418;-69
2021/09/08 11:51:43;;;;;;;9.25;6.68;;;28.90;54.60;;;;;;5051717;28;20056;-69
2021/09/08 11:54:15;;;;;;;7.88;6.15;;;28.90;53.30;;;;;;5051082;28;20033;-69
2021/09/08 11:56:41;;;;;;;10.38;6.88;;;28.70;52.60;;;;;;5051587;28;20064;-70
2021/09/08 11:59:08;;;;;;;7.72;6.72;;;28.60;52.50;;;;;;5050883;28;20508;-69
2021/09/08 12:01:41;;;;;;;12.50;6.32;;;28.70;53.60;;;;;;5051666;28;20066;-70
2021/09/08 12:04:09;;;;;;;6.57;5.60;;;28.90;52.70;;;;;;5050888;28;20059;-70
2021/09/08 12:07:00;;;;;;;7.25;5.90;;;29.10;52.70;;;;;;5051086;28;20044;-70
2021/09/08 12:09:33;;;;;;;7.88;6.45;;;29.50;50.90;;;;;;5043451;28;20520;-70
2021/09/08 12:12:00;;;;;;;9.52;6.00;;;;;;;;;;5048667;28;20036;-69
2021/09/08 12:14:33;;;;;;;7.18;6.47;;;29.90;49.50;;;;;;5049487;28;20033;-70
2021/09/08 12:17:03;;;;;;;7.70;6.05;;;30.00;50.30;;;;;;5057520;28;20070;-70
2021/09/08 12:19:29;;;;;;;;;;;;;;;;;;5051786;28;20027;-71
2021/09/08 12:22:06;;;;;;;9.30;6.78;;;30.10;60.90;;;;;;5050602;28;19912;-70
2021/09/08 12:24:38;;;;;;;10.00;6.07;;;30.20;65.90;;;;;;5050971;28;20347;-70
2021/09/08 12:27:03;;;;;;;7.22;5.75;;;30.40;48.20;;;;;;5050357;28;20035;-70
2021/09/08 12:29:29;;;;;;;7.13;6.18;;;30.40;49.20;;;;;;5050079;28;20032;-70
2021/09/08 12:32:02;;;;;;;8.15;5.93;;;30.60;48.40;;;;;;5048918;28;20025;-70
2021/09/08 12:34:47;;;;;;;7.88;5.90;;;;;;;;;;5050014;28;20048;-70